82FD weather

Atc Heliport
Jupiter, Florida, United States

Public forecast

Using degrees Fahrenheit for public forecast. Weather courtesy of forecast.io.

METAR (pilot weather report)

Closest report is Witham Field, 13.5 nm (24.9 km) NNW. Retrieved 2019/06/16 21:05 UTC (56 minutes ago):

KSUA 162105Z 18011G22KT 2SM RA BKN006 BKN028 OVC060 28/22 A3006

TAF (pilot weather forecast)

Closest forecast is Witham Field, 13.5 nm (24.9 km) NNW. Retrieved 2019/06/16 18:22 UTC (4 hours ago):

TAF KSUA 161720Z 1618/1718 12009KT P6SM FEW030 SCT100 FM162100 12009KT P6SM SCT035 SCT200 FM170000 10004KT P6SM VCSH SCT035 SCT200 FM171100 09005KT P6SM VCSH FEW035 BKN100